sensor_id;sensor_type;location;lat;lon;timestamp;P1;durP1;ratioP1;P2;durP2;ratioP2
12306;SDS011;6216;51.146;7.008;2024-02-26T00:01:03;1.03;;;0.53;;
12306;SDS011;6216;51.146;7.008;2024-02-26T00:03:32;0.87;;;0.50;;
12306;SDS011;6216;51.146;7.008;2024-02-26T00:06:03;0.40;;;0.40;;
12306;SDS011;6216;51.146;7.008;2024-02-26T00:08:32;2.73;;;2.17;;
12306;SDS011;6216;51.146;7.008;2024-02-26T00:11:00;1.13;;;1.00;;
12306;SDS011;6216;51.146;7.008;2024-02-26T00:13:28;0.60;;;0.60;;
12306;SDS011;6216;51.146;7.008;2024-02-26T00:15:57;0.60;;;0.60;;
12306;SDS011;6216;51.146;7.008;2024-02-26T00:18:25;0.50;;;0.50;;
12306;SDS011;6216;51.146;7.008;2024-02-26T00:20:54;0.90;;;0.60;;
12306;SDS011;6216;51.146;7.008;2024-02-26T00:23:23;0.60;;;0.40;;
12306;SDS011;6216;51.146;7.008;2024-02-26T00:25:51;0.60;;;0.60;;
12306;SDS011;6216;51.146;7.008;2024-02-26T00:28:20;0.70;;;0.60;;
12306;SDS011;6216;51.146;7.008;2024-02-26T00:30:48;0.60;;;0.50;;
12306;SDS011;6216;51.146;7.008;2024-02-26T00:33:17;0.83;;;0.70;;
12306;SDS011;6216;51.146;7.008;2024-02-26T00:35:44;0.90;;;0.50;;
12306;SDS011;6216;51.146;7.008;2024-02-26T00:38:13;0.60;;;0.53;;
12306;SDS011;6216;51.146;7.008;2024-02-26T00:40:42;0.80;;;0.70;;
12306;SDS011;6216;51.146;7.008;2024-02-26T00:43:11;0.60;;;0.60;;
12306;SDS011;6216;51.146;7.008;2024-02-26T00:45:39;0.57;;;0.57;;
12306;SDS011;6216;51.146;7.008;2024-02-26T00:48:07;0.50;;;0.50;;
12306;SDS011;6216;51.146;7.008;2024-02-26T00:50:35;0.53;;;0.40;;
12306;SDS011;6216;51.146;7.008;2024-02-26T00:53:04;1.00;;;0.50;;
12306;SDS011;6216;51.146;7.008;2024-02-26T00:55:32;0.50;;;0.50;;
12306;SDS011;6216;51.146;7.008;2024-02-26T00:58:02;0.97;;;0.60;;
12306;SDS011;6216;51.146;7.008;2024-02-26T01:00:30;0.70;;;0.50;;
12306;SDS011;6216;51.146;7.008;2024-02-26T01:02:58;1.50;;;0.70;;
12306;SDS011;6216;51.146;7.008;2024-02-26T01:05:26;1.00;;;0.60;;
12306;SDS011;6216;51.146;7.008;2024-02-26T01:07:55;1.70;;;0.70;;
12306;SDS011;6216;51.146;7.008;2024-02-26T01:10:23;0.63;;;0.60;;
12306;SDS011;6216;51.146;7.008;2024-02-26T01:12:51;1.23;;;0.60;;
12306;SDS011;6216;51.146;7.008;2024-02-26T01:15:21;0.90;;;0.73;;
12306;SDS011;6216;51.146;7.008;2024-02-26T01:17:50;1.40;;;0.60;;
12306;SDS011;6216;51.146;7.008;2024-02-26T01:20:18;0.60;;;0.50;;
12306;SDS011;6216;51.146;7.008;2024-02-26T01:22:47;1.60;;;0.70;;
12306;SDS011;6216;51.146;7.008;2024-02-26T01:25:15;0.50;;;0.50;;
12306;SDS011;6216;51.146;7.008;2024-02-26T01:27:44;0.50;;;0.50;;
12306;SDS011;6216;51.146;7.008;2024-02-26T01:30:12;0.50;;;0.50;;
12306;SDS011;6216;51.146;7.008;2024-02-26T01:32:44;0.87;;;0.70;;
12306;SDS011;6216;51.146;7.008;2024-02-26T01:35:12;0.50;;;0.50;;
12306;SDS011;6216;51.146;7.008;2024-02-26T01:37:40;0.57;;;0.50;;
12306;SDS011;6216;51.146;7.008;2024-02-26T01:40:09;1.13;;;0.97;;
12306;SDS011;6216;51.146;7.008;2024-02-26T01:42:38;1.07;;;0.30;;
12306;SDS011;6216;51.146;7.008;2024-02-26T01:45:08;1.33;;;0.60;;
12306;SDS011;6216;51.146;7.008;2024-02-26T01:47:41;0.37;;;0.37;;
12306;SDS011;6216;51.146;7.008;2024-02-26T01:50:14;0.50;;;0.50;;
12306;SDS011;6216;51.146;7.008;2024-02-26T01:52:42;1.03;;;0.40;;
12306;SDS011;6216;51.146;7.008;2024-02-26T01:55:11;1.43;;;0.80;;
12306;SDS011;6216;51.146;7.008;2024-02-26T01:57:40;0.60;;;0.57;;
12306;SDS011;6216;51.146;7.008;2024-02-26T02:00:09;0.57;;;0.50;;
12306;SDS011;6216;51.146;7.008;2024-02-26T02:02:37;0.47;;;0.47;;
12306;SDS011;6216;51.146;7.008;2024-02-26T02:05:08;0.37;;;0.37;;
12306;SDS011;6216;51.146;7.008;2024-02-26T02:07:38;0.67;;;0.50;;
12306;SDS011;6216;51.146;7.008;2024-02-26T02:10:06;0.53;;;0.53;;
12306;SDS011;6216;51.146;7.008;2024-02-26T02:12:35;1.70;;;0.70;;
12306;SDS011;6216;51.146;7.008;2024-02-26T02:15:06;0.83;;;0.63;;
12306;SDS011;6216;51.146;7.008;2024-02-26T02:17:35;0.77;;;0.63;;
12306;SDS011;6216;51.146;7.008;2024-02-26T02:20:03;0.50;;;0.50;;
12306;SDS011;6216;51.146;7.008;2024-02-26T02:22:33;0.97;;;0.80;;
12306;SDS011;6216;51.146;7.008;2024-02-26T02:25:01;0.80;;;0.53;;
12306;SDS011;6216;51.146;7.008;2024-02-26T02:27:30;1.07;;;0.67;;
12306;SDS011;6216;51.146;7.008;2024-02-26T02:29:58;0.60;;;0.60;;
12306;SDS011;6216;51.146;7.008;2024-02-26T02:32:26;0.87;;;0.50;;
12306;SDS011;6216;51.146;7.008;2024-02-26T02:34:56;0.40;;;0.40;;
12306;SDS011;6216;51.146;7.008;2024-02-26T02:37:24;0.97;;;0.50;;
12306;SDS011;6216;51.146;7.008;2024-02-26T02:39:54;0.97;;;0.60;;
12306;SDS011;6216;51.146;7.008;2024-02-26T02:42:23;0.47;;;0.47;;
12306;SDS011;6216;51.146;7.008;2024-02-26T02:44:52;1.10;;;0.70;;
12306;SDS011;6216;51.146;7.008;2024-02-26T02:47:20;0.43;;;0.43;;
12306;SDS011;6216;51.146;7.008;2024-02-26T02:49:48;0.50;;;0.50;;
12306;SDS011;6216;51.146;7.008;2024-02-26T02:52:17;0.73;;;0.40;;
12306;SDS011;6216;51.146;7.008;2024-02-26T02:54:45;0.70;;;0.60;;
12306;SDS011;6216;51.146;7.008;2024-02-26T02:57:15;0.50;;;0.50;;
12306;SDS011;6216;51.146;7.008;2024-02-26T02:59:43;1.53;;;0.50;;
12306;SDS011;6216;51.146;7.008;2024-02-26T03:02:11;0.50;;;0.43;;
12306;SDS011;6216;51.146;7.008;2024-02-26T03:04:40;0.50;;;0.50;;
12306;SDS011;6216;51.146;7.008;2024-02-26T03:07:08;1.00;;;0.60;;
12306;SDS011;6216;51.146;7.008;2024-02-26T03:09:36;2.17;;;0.80;;
12306;SDS011;6216;51.146;7.008;2024-02-26T03:12:04;1.00;;;0.63;;
12306;SDS011;6216;51.146;7.008;2024-02-26T03:14:34;0.50;;;0.50;;
12306;SDS011;6216;51.146;7.008;2024-02-26T03:17:03;0.97;;;0.50;;
12306;SDS011;6216;51.146;7.008;2024-02-26T03:19:31;1.03;;;0.70;;
12306;SDS011;6216;51.146;7.008;2024-02-26T03:21:59;0.57;;;0.50;;
12306;SDS011;6216;51.146;7.008;2024-02-26T03:24:27;0.53;;;0.53;;
12306;SDS011;6216;51.146;7.008;2024-02-26T03:26:56;0.50;;;0.50;;
12306;SDS011;6216;51.146;7.008;2024-02-26T03:29:24;1.77;;;0.50;;
12306;SDS011;6216;51.146;7.008;2024-02-26T03:31:54;0.60;;;0.60;;
12306;SDS011;6216;51.146;7.008;2024-02-26T03:34:22;1.33;;;0.60;;
12306;SDS011;6216;51.146;7.008;2024-02-26T03:36:52;0.93;;;0.50;;
12306;SDS011;6216;51.146;7.008;2024-02-26T03:39:20;0.53;;;0.53;;
12306;SDS011;6216;51.146;7.008;2024-02-26T03:41:48;0.60;;;0.60;;
12306;SDS011;6216;51.146;7.008;2024-02-26T03:44:17;1.27;;;0.60;;
12306;SDS011;6216;51.146;7.008;2024-02-26T03:46:45;2.90;;;0.43;;
12306;SDS011;6216;51.146;7.008;2024-02-26T03:49:15;0.50;;;0.47;;
12306;SDS011;6216;51.146;7.008;2024-02-26T03:51:44;0.70;;;0.60;;
12306;SDS011;6216;51.146;7.008;2024-02-26T03:54:12;1.53;;;0.40;;
12306;SDS011;6216;51.146;7.008;2024-02-26T03:56:41;0.53;;;0.53;;
12306;SDS011;6216;51.146;7.008;2024-02-26T03:59:09;0.53;;;0.53;;
12306;SDS011;6216;51.146;7.008;2024-02-26T04:01:37;0.50;;;0.50;;
12306;SDS011;6216;51.146;7.008;2024-02-26T04:04:05;0.77;;;0.67;;
12306;SDS011;6216;51.146;7.008;2024-02-26T04:06:35;0.67;;;0.67;;
12306;SDS011;6216;51.146;7.008;2024-02-26T04:09:04;0.80;;;0.70;;
12306;SDS011;6216;51.146;7.008;2024-02-26T04:11:32;0.80;;;0.80;;
12306;SDS011;6216;51.146;7.008;2024-02-26T04:14:00;0.57;;;0.57;;
12306;SDS011;6216;51.146;7.008;2024-02-26T04:16:29;1.90;;;0.80;;
12306;SDS011;6216;51.146;7.008;2024-02-26T04:18:57;0.83;;;0.70;;
12306;SDS011;6216;51.146;7.008;2024-02-26T04:21:25;1.20;;;0.70;;
12306;SDS011;6216;51.146;7.008;2024-02-26T04:23:55;1.00;;;0.47;;
12306;SDS011;6216;51.146;7.008;2024-02-26T04:26:27;0.47;;;0.47;;
12306;SDS011;6216;51.146;7.008;2024-02-26T04:28:55;0.70;;;0.67;;
12306;SDS011;6216;51.146;7.008;2024-02-26T04:31:23;0.60;;;0.60;;
12306;SDS011;6216;51.146;7.008;2024-02-26T04:33:52;1.20;;;1.10;;
12306;SDS011;6216;51.146;7.008;2024-02-26T04:36:20;1.40;;;0.60;;
12306;SDS011;6216;51.146;7.008;2024-02-26T04:38:49;1.43;;;0.90;;
12306;SDS011;6216;51.146;7.008;2024-02-26T04:41:19;0.50;;;0.50;;
12306;SDS011;6216;51.146;7.008;2024-02-26T04:43:47;1.10;;;0.67;;
12306;SDS011;6216;51.146;7.008;2024-02-26T04:46:15;0.70;;;0.70;;
12306;SDS011;6216;51.146;7.008;2024-02-26T04:48:43;0.80;;;0.60;;
12306;SDS011;6216;51.146;7.008;2024-02-26T04:51:13;0.67;;;0.67;;
12306;SDS011;6216;51.146;7.008;2024-02-26T04:53:41;0.37;;;0.37;;
12306;SDS011;6216;51.146;7.008;2024-02-26T04:56:09;0.60;;;0.60;;
12306;SDS011;6216;51.146;7.008;2024-02-26T04:58:39;1.07;;;0.70;;
12306;SDS011;6216;51.146;7.008;2024-02-26T05:01:07;1.20;;;0.57;;
12306;SDS011;6216;51.146;7.008;2024-02-26T05:03:37;1.03;;;0.53;;
12306;SDS011;6216;51.146;7.008;2024-02-26T05:06:05;0.80;;;0.70;;
12306;SDS011;6216;51.146;7.008;2024-02-26T05:08:35;3.67;;;0.63;;
12306;SDS011;6216;51.146;7.008;2024-02-26T05:11:04;1.27;;;0.60;;
12306;SDS011;6216;51.146;7.008;2024-02-26T05:13:33;1.30;;;0.70;;
12306;SDS011;6216;51.146;7.008;2024-02-26T05:16:04;0.87;;;0.67;;
12306;SDS011;6216;51.146;7.008;2024-02-26T05:18:32;0.67;;;0.57;;
12306;SDS011;6216;51.146;7.008;2024-02-26T05:21:00;1.87;;;0.80;;
12306;SDS011;6216;51.146;7.008;2024-02-26T05:23:30;1.43;;;1.27;;
12306;SDS011;6216;51.146;7.008;2024-02-26T05:25:58;0.80;;;0.80;;
12306;SDS011;6216;51.146;7.008;2024-02-26T05:28:26;1.03;;;0.80;;
12306;SDS011;6216;51.146;7.008;2024-02-26T05:30:54;0.80;;;0.80;;
12306;SDS011;6216;51.146;7.008;2024-02-26T05:33:24;1.23;;;1.00;;
12306;SDS011;6216;51.146;7.008;2024-02-26T05:35:52;1.27;;;1.00;;
12306;SDS011;6216;51.146;7.008;2024-02-26T05:38:21;1.40;;;1.30;;
12306;SDS011;6216;51.146;7.008;2024-02-26T05:40:49;1.03;;;0.93;;
12306;SDS011;6216;51.146;7.008;2024-02-26T05:43:18;3.10;;;1.50;;
12306;SDS011;6216;51.146;7.008;2024-02-26T05:45:46;1.27;;;0.90;;
12306;SDS011;6216;51.146;7.008;2024-02-26T05:48:15;2.63;;;1.23;;
12306;SDS011;6216;51.146;7.008;2024-02-26T05:50:46;2.57;;;1.33;;
12306;SDS011;6216;51.146;7.008;2024-02-26T05:53:15;1.50;;;1.40;;
12306;SDS011;6216;51.146;7.008;2024-02-26T05:55:43;1.90;;;1.27;;
12306;SDS011;6216;51.146;7.008;2024-02-26T05:58:11;2.97;;;1.10;;
12306;SDS011;6216;51.146;7.008;2024-02-26T06:00:40;1.87;;;1.23;;
12306;SDS011;6216;51.146;7.008;2024-02-26T06:03:08;1.90;;;0.97;;
12306;SDS011;6216;51.146;7.008;2024-02-26T06:05:36;1.47;;;1.20;;
12306;SDS011;6216;51.146;7.008;2024-02-26T06:08:06;1.53;;;1.00;;
12306;SDS011;6216;51.146;7.008;2024-02-26T06:10:35;1.20;;;1.10;;
12306;SDS011;6216;51.146;7.008;2024-02-26T06:13:03;2.70;;;1.30;;
12306;SDS011;6216;51.146;7.008;2024-02-26T06:15:31;1.40;;;1.10;;
12306;SDS011;6216;51.146;7.008;2024-02-26T06:17:59;2.30;;;1.10;;
12306;SDS011;6216;51.146;7.008;2024-02-26T06:20:28;1.53;;;0.90;;
12306;SDS011;6216;51.146;7.008;2024-02-26T06:22:56;3.70;;;1.37;;
12306;SDS011;6216;51.146;7.008;2024-02-26T06:25:26;1.67;;;1.20;;
12306;SDS011;6216;51.146;7.008;2024-02-26T06:27:54;1.50;;;1.03;;
12306;SDS011;6216;51.146;7.008;2024-02-26T06:30:23;1.10;;;1.00;;
12306;SDS011;6216;51.146;7.008;2024-02-26T06:32:51;1.20;;;1.10;;
12306;SDS011;6216;51.146;7.008;2024-02-26T06:35:19;1.33;;;1.23;;
12306;SDS011;6216;51.146;7.008;2024-02-26T06:37:48;1.83;;;1.00;;
12306;SDS011;6216;51.146;7.008;2024-02-26T06:40:18;1.20;;;1.10;;
12306;SDS011;6216;51.146;7.008;2024-02-26T06:42:48;2.93;;;1.30;;
12306;SDS011;6216;51.146;7.008;2024-02-26T06:45:17;1.43;;;1.10;;
12306;SDS011;6216;51.146;7.008;2024-02-26T06:47:45;1.30;;;1.20;;
12306;SDS011;6216;51.146;7.008;2024-02-26T06:50:14;1.20;;;1.00;;
12306;SDS011;6216;51.146;7.008;2024-02-26T06:52:42;2.07;;;1.27;;
12306;SDS011;6216;51.146;7.008;2024-02-26T06:55:11;1.37;;;1.27;;
12306;SDS011;6216;51.146;7.008;2024-02-26T06:57:39;2.93;;;1.50;;
12306;SDS011;6216;51.146;7.008;2024-02-26T07:00:10;1.70;;;1.60;;
12306;SDS011;6216;51.146;7.008;2024-02-26T07:02:41;2.40;;;1.67;;
12306;SDS011;6216;51.146;7.008;2024-02-26T07:05:09;1.53;;;1.20;;
12306;SDS011;6216;51.146;7.008;2024-02-26T07:07:38;1.63;;;1.53;;
12306;SDS011;6216;51.146;7.008;2024-02-26T07:10:07;1.23;;;1.13;;
12306;SDS011;6216;51.146;7.008;2024-02-26T07:12:38;1.63;;;1.30;;
12306;SDS011;6216;51.146;7.008;2024-02-26T07:15:07;1.70;;;1.30;;
12306;SDS011;6216;51.146;7.008;2024-02-26T07:17:37;1.40;;;1.30;;
12306;SDS011;6216;51.146;7.008;2024-02-26T07:20:08;1.57;;;1.30;;
12306;SDS011;6216;51.146;7.008;2024-02-26T07:22:37;3.23;;;1.50;;
12306;SDS011;6216;51.146;7.008;2024-02-26T07:25:06;1.37;;;1.27;;
12306;SDS011;6216;51.146;7.008;2024-02-26T07:27:35;1.00;;;1.00;;
12306;SDS011;6216;51.146;7.008;2024-02-26T07:30:03;2.30;;;1.40;;
12306;SDS011;6216;51.146;7.008;2024-02-26T07:32:32;1.47;;;1.37;;
12306;SDS011;6216;51.146;7.008;2024-02-26T07:35:02;1.53;;;1.43;;
12306;SDS011;6216;51.146;7.008;2024-02-26T07:37:30;1.53;;;1.40;;
12306;SDS011;6216;51.146;7.008;2024-02-26T07:39:58;1.30;;;1.20;;
12306;SDS011;6216;51.146;7.008;2024-02-26T07:42:26;2.00;;;1.30;;
12306;SDS011;6216;51.146;7.008;2024-02-26T07:44:55;2.73;;;1.40;;
12306;SDS011;6216;51.146;7.008;2024-02-26T07:47:23;2.33;;;1.30;;
12306;SDS011;6216;51.146;7.008;2024-02-26T07:49:51;1.77;;;1.20;;
12306;SDS011;6216;51.146;7.008;2024-02-26T07:52:21;1.50;;;1.40;;
12306;SDS011;6216;51.146;7.008;2024-02-26T07:54:49;1.60;;;1.40;;
12306;SDS011;6216;51.146;7.008;2024-02-26T07:57:18;1.43;;;1.33;;
12306;SDS011;6216;51.146;7.008;2024-02-26T07:59:47;2.37;;;1.40;;
12306;SDS011;6216;51.146;7.008;2024-02-26T08:02:16;1.33;;;1.23;;
12306;SDS011;6216;51.146;7.008;2024-02-26T08:04:45;1.67;;;1.30;;
12306;SDS011;6216;51.146;7.008;2024-02-26T08:07:13;2.33;;;1.13;;
12306;SDS011;6216;51.146;7.008;2024-02-26T08:09:44;2.43;;;1.10;;
12306;SDS011;6216;51.146;7.008;2024-02-26T08:12:12;1.30;;;1.20;;
12306;SDS011;6216;51.146;7.008;2024-02-26T08:14:41;1.40;;;1.17;;
12306;SDS011;6216;51.146;7.008;2024-02-26T08:17:10;2.10;;;1.10;;
12306;SDS011;6216;51.146;7.008;2024-02-26T08:19:38;1.37;;;1.27;;
12306;SDS011;6216;51.146;7.008;2024-02-26T08:22:06;2.73;;;1.47;;
12306;SDS011;6216;51.146;7.008;2024-02-26T08:24:36;2.30;;;1.33;;
12306;SDS011;6216;51.146;7.008;2024-02-26T08:27:06;2.73;;;1.40;;
12306;SDS011;6216;51.146;7.008;2024-02-26T08:29:34;1.00;;;1.00;;
12306;SDS011;6216;51.146;7.008;2024-02-26T08:32:02;3.07;;;1.30;;
12306;SDS011;6216;51.146;7.008;2024-02-26T08:34:32;2.07;;;1.17;;
12306;SDS011;6216;51.146;7.008;2024-02-26T08:37:00;1.80;;;1.27;;
12306;SDS011;6216;51.146;7.008;2024-02-26T08:39:28;1.30;;;1.20;;
12306;SDS011;6216;51.146;7.008;2024-02-26T08:41:56;1.07;;;1.00;;
12306;SDS011;6216;51.146;7.008;2024-02-26T08:44:26;2.20;;;1.23;;
12306;SDS011;6216;51.146;7.008;2024-02-26T08:46:54;2.03;;;1.10;;
12306;SDS011;6216;51.146;7.008;2024-02-26T08:49:23;0.87;;;0.87;;
12306;SDS011;6216;51.146;7.008;2024-02-26T08:51:51;2.10;;;1.10;;
12306;SDS011;6216;51.146;7.008;2024-02-26T08:54:19;1.37;;;1.00;;
12306;SDS011;6216;51.146;7.008;2024-02-26T08:56:48;1.17;;;1.07;;
12306;SDS011;6216;51.146;7.008;2024-02-26T08:59:16;1.30;;;0.90;;
12306;SDS011;6216;51.146;7.008;2024-02-26T09:01:50;1.63;;;1.00;;
12306;SDS011;6216;51.146;7.008;2024-02-26T09:04:18;1.10;;;0.87;;
12306;SDS011;6216;51.146;7.008;2024-02-26T09:06:46;1.07;;;0.93;;
12306;SDS011;6216;51.146;7.008;2024-02-26T09:09:15;1.10;;;1.00;;
12306;SDS011;6216;51.146;7.008;2024-02-26T09:11:43;1.20;;;0.87;;
12306;SDS011;6216;51.146;7.008;2024-02-26T09:14:11;0.80;;;0.80;;
12306;SDS011;6216;51.146;7.008;2024-02-26T09:16:40;1.27;;;1.17;;
12306;SDS011;6216;51.146;7.008;2024-02-26T09:19:09;2.80;;;1.47;;
12306;SDS011;6216;51.146;7.008;2024-02-26T09:21:41;1.67;;;1.10;;
12306;SDS011;6216;51.146;7.008;2024-02-26T09:24:10;1.50;;;0.90;;
12306;SDS011;6216;51.146;7.008;2024-02-26T09:26:38;1.20;;;1.10;;
12306;SDS011;6216;51.146;7.008;2024-02-26T09:29:06;1.53;;;1.20;;
12306;SDS011;6216;51.146;7.008;2024-02-26T09:31:35;1.40;;;1.30;;
12306;SDS011;6216;51.146;7.008;2024-02-26T09:34:03;1.80;;;1.10;;
12306;SDS011;6216;51.146;7.008;2024-02-26T09:36:33;2.20;;;1.23;;
12306;SDS011;6216;51.146;7.008;2024-02-26T09:39:01;2.63;;;1.40;;
12306;SDS011;6216;51.146;7.008;2024-02-26T09:41:30;1.10;;;1.00;;
12306;SDS011;6216;51.146;7.008;2024-02-26T09:43:58;1.50;;;1.00;;
12306;SDS011;6216;51.146;7.008;2024-02-26T09:46:29;1.37;;;1.17;;
12306;SDS011;6216;51.146;7.008;2024-02-26T09:48:58;1.10;;;1.00;;
12306;SDS011;6216;51.146;7.008;2024-02-26T09:51:26;1.90;;;1.10;;
12306;SDS011;6216;51.146;7.008;2024-02-26T09:53:57;1.40;;;1.20;;
12306;SDS011;6216;51.146;7.008;2024-02-26T09:56:31;1.77;;;1.20;;
12306;SDS011;6216;51.146;7.008;2024-02-26T09:59:00;2.30;;;1.20;;
12306;SDS011;6216;51.146;7.008;2024-02-26T10:01:31;1.13;;;1.03;;
12306;SDS011;6216;51.146;7.008;2024-02-26T10:04:00;2.40;;;1.30;;
12306;SDS011;6216;51.146;7.008;2024-02-26T10:06:29;1.23;;;1.13;;
12306;SDS011;6216;51.146;7.008;2024-02-26T10:08:59;1.70;;;1.30;;
12306;SDS011;6216;51.146;7.008;2024-02-26T10:11:31;1.23;;;1.13;;
12306;SDS011;6216;51.146;7.008;2024-02-26T10:14:02;1.20;;;1.10;;
12306;SDS011;6216;51.146;7.008;2024-02-26T10:16:31;2.07;;;1.50;;
12306;SDS011;6216;51.146;7.008;2024-02-26T10:19:00;2.33;;;1.40;;
12306;SDS011;6216;51.146;7.008;2024-02-26T10:21:29;1.30;;;1.20;;
12306;SDS011;6216;51.146;7.008;2024-02-26T10:23:57;3.00;;;1.40;;
12306;SDS011;6216;51.146;7.008;2024-02-26T10:26:27;1.60;;;1.50;;
12306;SDS011;6216;51.146;7.008;2024-02-26T10:28:55;2.60;;;1.27;;
12306;SDS011;6216;51.146;7.008;2024-02-26T10:31:27;2.10;;;1.67;;
12306;SDS011;6216;51.146;7.008;2024-02-26T10:33:55;1.90;;;1.40;;
12306;SDS011;6216;51.146;7.008;2024-02-26T10:36:27;4.83;;;1.70;;
12306;SDS011;6216;51.146;7.008;2024-02-26T10:39:13;2.67;;;1.53;;
12306;SDS011;6216;51.146;7.008;2024-02-26T10:41:44;1.50;;;1.30;;
12306;SDS011;6216;51.146;7.008;2024-02-26T10:44:12;1.40;;;1.30;;
12306;SDS011;6216;51.146;7.008;2024-02-26T10:46:45;2.47;;;1.90;;
12306;SDS011;6216;51.146;7.008;2024-02-26T10:49:15;1.60;;;1.50;;
12306;SDS011;6216;51.146;7.008;2024-02-26T10:51:48;2.63;;;1.63;;
12306;SDS011;6216;51.146;7.008;2024-02-26T10:54:19;3.03;;;1.63;;
12306;SDS011;6216;51.146;7.008;2024-02-26T10:56:49;3.07;;;2.77;;
12306;SDS011;6216;51.146;7.008;2024-02-26T10:59:18;1.57;;;1.40;;
12306;SDS011;6216;51.146;7.008;2024-02-26T11:01:47;2.60;;;1.53;;
12306;SDS011;6216;51.146;7.008;2024-02-26T11:04:16;1.20;;;1.07;;
12306;SDS011;6216;51.146;7.008;2024-02-26T11:06:45;1.07;;;0.93;;
12306;SDS011;6216;51.146;7.008;2024-02-26T11:09:15;1.40;;;1.30;;
12306;SDS011;6216;51.146;7.008;2024-02-26T11:11:44;1.80;;;1.30;;
12306;SDS011;6216;51.146;7.008;2024-02-26T11:14:14;2.83;;;1.50;;
12306;SDS011;6216;51.146;7.008;2024-02-26T11:16:43;2.23;;;1.57;;
12306;SDS011;6216;51.146;7.008;2024-02-26T11:19:12;2.40;;;1.87;;
12306;SDS011;6216;51.146;7.008;2024-02-26T11:21:40;3.30;;;2.27;;
12306;SDS011;6216;51.146;7.008;2024-02-26T11:24:10;3.07;;;2.77;;
12306;SDS011;6216;51.146;7.008;2024-02-26T11:26:40;1.83;;;1.50;;
12306;SDS011;6216;51.146;7.008;2024-02-26T11:29:12;1.20;;;1.10;;
12306;SDS011;6216;51.146;7.008;2024-02-26T11:31:43;4.90;;;1.80;;
12306;SDS011;6216;51.146;7.008;2024-02-26T11:34:11;2.27;;;1.33;;
12306;SDS011;6216;51.146;7.008;2024-02-26T11:36:40;1.50;;;1.40;;
12306;SDS011;6216;51.146;7.008;2024-02-26T11:39:08;2.10;;;1.90;;
12306;SDS011;6216;51.146;7.008;2024-02-26T11:41:41;2.87;;;1.53;;
12306;SDS011;6216;51.146;7.008;2024-02-26T11:44:09;1.70;;;1.60;;
12306;SDS011;6216;51.146;7.008;2024-02-26T11:46:38;2.30;;;1.77;;
12306;SDS011;6216;51.146;7.008;2024-02-26T11:51:57;1.60;;;1.50;;
12306;SDS011;6216;51.146;7.008;2024-02-26T11:54:39;2.13;;;1.70;;
12306;SDS011;6216;51.146;7.008;2024-02-26T11:57:21;2.27;;;1.87;;
12306;SDS011;6216;51.146;7.008;2024-02-26T11:59:49;2.40;;;1.93;;
12306;SDS011;6216;51.146;7.008;2024-02-26T12:05:05;4.00;;;1.90;;
12306;SDS011;6216;51.146;7.008;2024-02-26T12:07:36;3.33;;;2.10;;
12306;SDS011;6216;51.146;7.008;2024-02-26T12:10:21;4.10;;;2.30;;
12306;SDS011;6216;51.146;7.008;2024-02-26T12:12:55;2.20;;;2.00;;
12306;SDS011;6216;51.146;7.008;2024-02-26T12:15:30;5.03;;;2.57;;
12306;SDS011;6216;51.146;7.008;2024-02-26T12:18:00;2.50;;;2.27;;
12306;SDS011;6216;51.146;7.008;2024-02-26T12:20:29;2.50;;;2.30;;
12306;SDS011;6216;51.146;7.008;2024-02-26T12:22:58;3.20;;;2.50;;
12306;SDS011;6216;51.146;7.008;2024-02-26T12:25:28;22.60;;;5.93;;
12306;SDS011;6216;51.146;7.008;2024-02-26T12:27:57;8.80;;;4.60;;
12306;SDS011;6216;51.146;7.008;2024-02-26T12:30:25;5.77;;;3.43;;
12306;SDS011;6216;51.146;7.008;2024-02-26T12:32:56;4.50;;;2.87;;
12306;SDS011;6216;51.146;7.008;2024-02-26T12:35:26;3.77;;;2.77;;
12306;SDS011;6216;51.146;7.008;2024-02-26T12:37:55;4.37;;;2.33;;
12306;SDS011;6216;51.146;7.008;2024-02-26T12:40:24;3.20;;;2.23;;
12306;SDS011;6216;51.146;7.008;2024-02-26T12:42:54;4.37;;;3.00;;
12306;SDS011;6216;51.146;7.008;2024-02-26T12:45:22;3.43;;;2.50;;
12306;SDS011;6216;51.146;7.008;2024-02-26T12:47:52;4.60;;;3.17;;
12306;SDS011;6216;51.146;7.008;2024-02-26T12:50:20;3.57;;;3.20;;
12306;SDS011;6216;51.146;7.008;2024-02-26T12:52:49;3.37;;;2.70;;
12306;SDS011;6216;51.146;7.008;2024-02-26T12:55:18;3.97;;;3.10;;
12306;SDS011;6216;51.146;7.008;2024-02-26T12:57:48;3.50;;;3.20;;
12306;SDS011;6216;51.146;7.008;2024-02-26T13:00:18;4.77;;;3.77;;
12306;SDS011;6216;51.146;7.008;2024-02-26T13:02:48;5.20;;;3.77;;
12306;SDS011;6216;51.146;7.008;2024-02-26T13:05:17;4.30;;;3.80;;
12306;SDS011;6216;51.146;7.008;2024-02-26T13:07:46;4.23;;;3.83;;
12306;SDS011;6216;51.146;7.008;2024-02-26T13:10:14;5.00;;;4.20;;
12306;SDS011;6216;51.146;7.008;2024-02-26T13:12:44;5.93;;;4.40;;
12306;SDS011;6216;51.146;7.008;2024-02-26T13:15:15;5.30;;;4.50;;
12306;SDS011;6216;51.146;7.008;2024-02-26T13:17:43;7.10;;;5.10;;
12306;SDS011;6216;51.146;7.008;2024-02-26T13:20:12;5.47;;;4.20;;
12306;SDS011;6216;51.146;7.008;2024-02-26T13:22:41;6.83;;;5.57;;
12306;SDS011;6216;51.146;7.008;2024-02-26T13:25:09;6.00;;;5.40;;
12306;SDS011;6216;51.146;7.008;2024-02-26T13:27:37;6.90;;;6.20;;
12306;SDS011;6216;51.146;7.008;2024-02-26T13:30:08;7.13;;;6.10;;
12306;SDS011;6216;51.146;7.008;2024-02-26T13:32:39;8.70;;;6.77;;
12306;SDS011;6216;51.146;7.008;2024-02-26T13:35:08;9.30;;;7.13;;
12306;SDS011;6216;51.146;7.008;2024-02-26T13:37:37;8.73;;;6.50;;
12306;SDS011;6216;51.146;7.008;2024-02-26T13:40:05;7.90;;;7.10;;
12306;SDS011;6216;51.146;7.008;2024-02-26T13:42:35;7.83;;;7.03;;
12306;SDS011;6216;51.146;7.008;2024-02-26T13:45:03;10.13;;;7.20;;
12306;SDS011;6216;51.146;7.008;2024-02-26T13:47:33;9.07;;;7.53;;
12306;SDS011;6216;51.146;7.008;2024-02-26T13:50:03;8.50;;;7.43;;
12306;SDS011;6216;51.146;7.008;2024-02-26T13:52:31;10.30;;;7.03;;
12306;SDS011;6216;51.146;7.008;2024-02-26T13:55:00;7.77;;;6.97;;
12306;SDS011;6216;51.146;7.008;2024-02-26T13:57:29;7.60;;;6.90;;
12306;SDS011;6216;51.146;7.008;2024-02-26T13:59:57;8.33;;;6.77;;
12306;SDS011;6216;51.146;7.008;2024-02-26T14:02:26;7.00;;;6.30;;
12306;SDS011;6216;51.146;7.008;2024-02-26T14:04:54;9.80;;;6.37;;
12306;SDS011;6216;51.146;7.008;2024-02-26T14:07:23;6.67;;;5.73;;
12306;SDS011;6216;51.146;7.008;2024-02-26T14:09:52;6.53;;;5.90;;
12306;SDS011;6216;51.146;7.008;2024-02-26T14:12:20;7.87;;;6.50;;
12306;SDS011;6216;51.146;7.008;2024-02-26T14:14:50;6.97;;;5.80;;
12306;SDS011;6216;51.146;7.008;2024-02-26T14:17:20;6.90;;;6.20;;
12306;SDS011;6216;51.146;7.008;2024-02-26T14:19:48;6.80;;;5.77;;
12306;SDS011;6216;51.146;7.008;2024-02-26T14:22:16;5.87;;;5.30;;
12306;SDS011;6216;51.146;7.008;2024-02-26T14:24:46;6.93;;;4.93;;
12306;SDS011;6216;51.146;7.008;2024-02-26T14:27:14;6.67;;;5.83;;
12306;SDS011;6216;51.146;7.008;2024-02-26T14:29:43;7.93;;;5.40;;
12306;SDS011;6216;51.146;7.008;2024-02-26T14:32:12;7.43;;;5.30;;
12306;SDS011;6216;51.146;7.008;2024-02-26T14:34:40;5.93;;;5.17;;
12306;SDS011;6216;51.146;7.008;2024-02-26T14:37:10;8.70;;;5.33;;
12306;SDS011;6216;51.146;7.008;2024-02-26T14:39:38;7.90;;;5.43;;
12306;SDS011;6216;51.146;7.008;2024-02-26T14:42:08;6.30;;;5.27;;
12306;SDS011;6216;51.146;7.008;2024-02-26T14:44:36;5.73;;;5.13;;
12306;SDS011;6216;51.146;7.008;2024-02-26T14:47:05;5.27;;;4.77;;
12306;SDS011;6216;51.146;7.008;2024-02-26T14:49:33;5.80;;;5.30;;
12306;SDS011;6216;51.146;7.008;2024-02-26T14:52:01;5.97;;;5.37;;
12306;SDS011;6216;51.146;7.008;2024-02-26T14:54:30;7.40;;;5.03;;
12306;SDS011;6216;51.146;7.008;2024-02-26T14:57:00;5.80;;;5.20;;
12306;SDS011;6216;51.146;7.008;2024-02-26T14:59:29;8.00;;;6.00;;
12306;SDS011;6216;51.146;7.008;2024-02-26T15:01:58;7.80;;;5.63;;
12306;SDS011;6216;51.146;7.008;2024-02-26T15:04:26;7.50;;;5.73;;
12306;SDS011;6216;51.146;7.008;2024-02-26T15:06:54;7.00;;;6.03;;
12306;SDS011;6216;51.146;7.008;2024-02-26T15:09:23;7.53;;;6.10;;
12306;SDS011;6216;51.146;7.008;2024-02-26T15:11:51;8.10;;;6.27;;
12306;SDS011;6216;51.146;7.008;2024-02-26T15:14:20;7.13;;;5.57;;
12306;SDS011;6216;51.146;7.008;2024-02-26T15:16:49;6.40;;;5.53;;